Baltimore, Maryland
Traffic Map
Current Weather Conditions
Baltimore, Maryland
Broken Clouds
Broken Clouds

Feels Like: 0°
Wind Chill: Ceiling: 4600
Heat Index: Visibility: 10mi
Dew Point: -2° Wind: 8mph
Humidity: 70% Direction: 280° (W)
Pressure: 30.25in Gusts: 0mph
Raw Report DataKBWI 040954Z 28007KT 10SM BKN046 BKN250 03/M02 A3025 RMK AO2 SLP245 T00331017
Traffic Incident Summary
Active as of:
Severity:
Category:
InformationThere was an issue retrieving the traffic information for this location. Please try a different location or try again shortly.
Advertisements
Track Severe Weather on mobile